sensor_id;sensor_type;location;lat;lon;timestamp;temperature;humidity
15083;DHT22;7640;53.116;6.878;2022-11-20T00:01:36;1.50;99.90
15083;DHT22;7640;53.116;6.878;2022-11-20T00:04:04;1.50;99.90
15083;DHT22;7640;53.116;6.878;2022-11-20T00:06:32;1.50;99.90
15083;DHT22;7640;53.116;6.878;2022-11-20T00:09:02;1.50;99.90
15083;DHT22;7640;53.116;6.878;2022-11-20T00:11:32;1.60;99.90
15083;DHT22;7640;53.116;6.878;2022-11-20T00:14:01;1.60;99.90
15083;DHT22;7640;53.116;6.878;2022-11-20T00:16:31;1.60;99.90
15083;DHT22;7640;53.116;6.878;2022-11-20T00:19:01;1.60;99.90
15083;DHT22;7640;53.116;6.878;2022-11-20T00:21:29;1.60;99.90
15083;DHT22;7640;53.116;6.878;2022-11-20T00:23:58;1.60;99.90
15083;DHT22;7640;53.116;6.878;2022-11-20T00:26:28;1.70;99.90
15083;DHT22;7640;53.116;6.878;2022-11-20T00:28:58;1.70;99.90
15083;DHT22;7640;53.116;6.878;2022-11-20T00:31:27;1.70;99.90
15083;DHT22;7640;53.116;6.878;2022-11-20T00:33:56;1.70;99.90
15083;DHT22;7640;53.116;6.878;2022-11-20T00:36:26;1.50;99.90
15083;DHT22;7640;53.116;6.878;2022-11-20T00:38:57;1.70;99.90
15083;DHT22;7640;53.116;6.878;2022-11-20T00:41:28;1.70;99.90
15083;DHT22;7640;53.116;6.878;2022-11-20T00:43:56;1.80;99.90
15083;DHT22;7640;53.116;6.878;2022-11-20T00:46:26;1.80;99.90
15083;DHT22;7640;53.116;6.878;2022-11-20T00:48:55;1.80;99.90
15083;DHT22;7640;53.116;6.878;2022-11-20T00:51:26;1.80;99.90
15083;DHT22;7640;53.116;6.878;2022-11-20T00:53:56;1.80;99.90
15083;DHT22;7640;53.116;6.878;2022-11-20T00:56:28;1.80;99.90
15083;DHT22;7640;53.116;6.878;2022-11-20T00:58:59;1.80;99.90
15083;DHT22;7640;53.116;6.878;2022-11-20T01:01:28;1.80;99.90
15083;DHT22;7640;53.116;6.878;2022-11-20T01:03:59;1.80;99.90
15083;DHT22;7640;53.116;6.878;2022-11-20T01:06:30;1.80;99.90
15083;DHT22;7640;53.116;6.878;2022-11-20T01:09:02;1.80;99.90
15083;DHT22;7640;53.116;6.878;2022-11-20T01:11:34;1.80;99.90
15083;DHT22;7640;53.116;6.878;2022-11-20T01:14:05;1.80;99.90
15083;DHT22;7640;53.116;6.878;2022-11-20T01:16:35;1.80;99.90
15083;DHT22;7640;53.116;6.878;2022-11-20T01:19:07;1.80;99.90
15083;DHT22;7640;53.116;6.878;2022-11-20T01:21:44;1.90;99.90
15083;DHT22;7640;53.116;6.878;2022-11-20T01:24:15;1.70;99.90
15083;DHT22;7640;53.116;6.878;2022-11-20T01:26:48;1.80;99.90
15083;DHT22;7640;53.116;6.878;2022-11-20T01:29:20;1.80;99.90
15083;DHT22;7640;53.116;6.878;2022-11-20T01:31:50;1.80;99.90
15083;DHT22;7640;53.116;6.878;2022-11-20T01:34:21;1.80;99.90
15083;DHT22;7640;53.116;6.878;2022-11-20T01:36:50;2.10;99.90
15083;DHT22;7640;53.116;6.878;2022-11-20T01:39:20;1.80;99.90
15083;DHT22;7640;53.116;6.878;2022-11-20T01:41:53;1.80;99.90
15083;DHT22;7640;53.116;6.878;2022-11-20T01:44:58;1.90;99.90
15083;DHT22;7640;53.116;6.878;2022-11-20T01:47:31;1.90;99.90
15083;DHT22;7640;53.116;6.878;2022-11-20T01:50:05;1.90;99.90
15083;DHT22;7640;53.116;6.878;2022-11-20T01:52:37;1.90;99.90
15083;DHT22;7640;53.116;6.878;2022-11-20T01:55:10;1.90;99.90
15083;DHT22;7640;53.116;6.878;2022-11-20T01:57:44;1.90;99.90
15083;DHT22;7640;53.116;6.878;2022-11-20T02:00:16;1.80;99.90
15083;DHT22;7640;53.116;6.878;2022-11-20T02:02:49;1.80;99.90
15083;DHT22;7640;53.116;6.878;2022-11-20T02:05:23;1.80;99.90
15083;DHT22;7640;53.116;6.878;2022-11-20T02:07:56;1.80;99.90
15083;DHT22;7640;53.116;6.878;2022-11-20T02:10:27;1.90;99.90
15083;DHT22;7640;53.116;6.878;2022-11-20T02:12:57;1.80;99.90
15083;DHT22;7640;53.116;6.878;2022-11-20T02:15:44;1.80;99.90
15083;DHT22;7640;53.116;6.878;2022-11-20T02:18:14;1.80;99.90
15083;DHT22;7640;53.116;6.878;2022-11-20T02:20:46;1.90;99.90
15083;DHT22;7640;53.116;6.878;2022-11-20T02:23:20;1.90;99.90
15083;DHT22;7640;53.116;6.878;2022-11-20T02:25:55;1.90;99.90
15083;DHT22;7640;53.116;6.878;2022-11-20T02:28:25;1.80;99.90
15083;DHT22;7640;53.116;6.878;2022-11-20T02:30:53;1.80;99.90
15083;DHT22;7640;53.116;6.878;2022-11-20T02:33:21;1.80;99.90
15083;DHT22;7640;53.116;6.878;2022-11-20T02:35:50;1.80;99.90
15083;DHT22;7640;53.116;6.878;2022-11-20T02:38:18;1.80;99.90
15083;DHT22;7640;53.116;6.878;2022-11-20T02:40:47;1.80;99.90
15083;DHT22;7640;53.116;6.878;2022-11-20T02:43:22;1.80;99.90
15083;DHT22;7640;53.116;6.878;2022-11-20T02:45:51;1.90;99.90
15083;DHT22;7640;53.116;6.878;2022-11-20T02:48:19;1.80;99.90
15083;DHT22;7640;53.116;6.878;2022-11-20T02:50:50;1.80;99.90
15083;DHT22;7640;53.116;6.878;2022-11-20T02:53:19;1.90;99.90
15083;DHT22;7640;53.116;6.878;2022-11-20T02:55:47;1.90;99.90
15083;DHT22;7640;53.116;6.878;2022-11-20T02:58:15;1.90;99.90
15083;DHT22;7640;53.116;6.878;2022-11-20T03:00:45;1.90;99.90
15083;DHT22;7640;53.116;6.878;2022-11-20T03:03:13;1.90;99.90
15083;DHT22;7640;53.116;6.878;2022-11-20T03:05:41;1.90;99.90
15083;DHT22;7640;53.116;6.878;2022-11-20T03:08:10;1.90;99.90
15083;DHT22;7640;53.116;6.878;2022-11-20T03:10:38;1.90;99.90
15083;DHT22;7640;53.116;6.878;2022-11-20T03:13:06;1.90;99.90
15083;DHT22;7640;53.116;6.878;2022-11-20T03:15:35;1.90;99.90
15083;DHT22;7640;53.116;6.878;2022-11-20T03:18:05;1.90;99.90
15083;DHT22;7640;53.116;6.878;2022-11-20T03:20:34;1.90;99.90
15083;DHT22;7640;53.116;6.878;2022-11-20T03:23:03;1.90;99.90
15083;DHT22;7640;53.116;6.878;2022-11-20T03:25:33;1.90;99.90
15083;DHT22;7640;53.116;6.878;2022-11-20T03:28:02;1.80;99.90
15083;DHT22;7640;53.116;6.878;2022-11-20T03:30:30;1.90;99.90
15083;DHT22;7640;53.116;6.878;2022-11-20T03:32:58;1.90;99.90
15083;DHT22;7640;53.116;6.878;2022-11-20T03:35:28;2.00;99.90
15083;DHT22;7640;53.116;6.878;2022-11-20T03:37:57;2.00;99.90
15083;DHT22;7640;53.116;6.878;2022-11-20T03:40:25;2.00;99.90
15083;DHT22;7640;53.116;6.878;2022-11-20T03:42:54;2.00;99.90
15083;DHT22;7640;53.116;6.878;2022-11-20T03:45:22;2.00;99.90
15083;DHT22;7640;53.116;6.878;2022-11-20T03:47:50;2.00;99.90
15083;DHT22;7640;53.116;6.878;2022-11-20T03:50:19;2.00;99.90
15083;DHT22;7640;53.116;6.878;2022-11-20T03:52:48;2.00;99.90
15083;DHT22;7640;53.116;6.878;2022-11-20T03:55:17;2.00;99.90
15083;DHT22;7640;53.116;6.878;2022-11-20T03:57:45;2.00;99.90
15083;DHT22;7640;53.116;6.878;2022-11-20T04:00:14;2.00;99.90
15083;DHT22;7640;53.116;6.878;2022-11-20T04:02:43;2.10;99.90
15083;DHT22;7640;53.116;6.878;2022-11-20T04:05:11;2.10;99.90
15083;DHT22;7640;53.116;6.878;2022-11-20T04:07:39;2.10;99.90
15083;DHT22;7640;53.116;6.878;2022-11-20T04:10:09;2.10;99.90
15083;DHT22;7640;53.116;6.878;2022-11-20T04:12:37;2.10;99.90
15083;DHT22;7640;53.116;6.878;2022-11-20T04:15:06;2.00;99.90
15083;DHT22;7640;53.116;6.878;2022-11-20T04:17:35;2.00;99.90
15083;DHT22;7640;53.116;6.878;2022-11-20T04:20:04;2.10;99.90
15083;DHT22;7640;53.116;6.878;2022-11-20T04:22:34;2.40;99.90
15083;DHT22;7640;53.116;6.878;2022-11-20T04:25:02;2.10;99.90
15083;DHT22;7640;53.116;6.878;2022-11-20T04:27:32;2.10;99.90
15083;DHT22;7640;53.116;6.878;2022-11-20T04:30:00;2.10;99.90
15083;DHT22;7640;53.116;6.878;2022-11-20T04:32:28;2.10;99.90
15083;DHT22;7640;53.116;6.878;2022-11-20T04:34:57;2.50;99.90
15083;DHT22;7640;53.116;6.878;2022-11-20T04:37:25;2.10;99.90
15083;DHT22;7640;53.116;6.878;2022-11-20T04:39:53;2.10;99.90
15083;DHT22;7640;53.116;6.878;2022-11-20T04:42:22;2.20;99.90
15083;DHT22;7640;53.116;6.878;2022-11-20T04:44:57;2.20;99.90
15083;DHT22;7640;53.116;6.878;2022-11-20T04:47:25;2.20;99.90
15083;DHT22;7640;53.116;6.878;2022-11-20T04:49:53;2.20;99.90
15083;DHT22;7640;53.116;6.878;2022-11-20T04:52:22;2.20;99.90
15083;DHT22;7640;53.116;6.878;2022-11-20T04:54:50;2.20;99.90
15083;DHT22;7640;53.116;6.878;2022-11-20T04:57:20;2.20;99.90
15083;DHT22;7640;53.116;6.878;2022-11-20T04:59:48;2.20;99.90
15083;DHT22;7640;53.116;6.878;2022-11-20T05:02:18;2.20;99.90
15083;DHT22;7640;53.116;6.878;2022-11-20T05:04:46;2.20;99.90
15083;DHT22;7640;53.116;6.878;2022-11-20T05:07:15;2.20;99.90
15083;DHT22;7640;53.116;6.878;2022-11-20T05:09:43;2.20;99.90
15083;DHT22;7640;53.116;6.878;2022-11-20T05:12:12;2.20;99.90
15083;DHT22;7640;53.116;6.878;2022-11-20T05:14:40;2.20;99.90
15083;DHT22;7640;53.116;6.878;2022-11-20T05:17:11;2.20;99.90
15083;DHT22;7640;53.116;6.878;2022-11-20T05:19:41;2.20;99.90
15083;DHT22;7640;53.116;6.878;2022-11-20T05:22:09;2.20;99.90
15083;DHT22;7640;53.116;6.878;2022-11-20T05:24:38;2.20;99.90
15083;DHT22;7640;53.116;6.878;2022-11-20T05:27:06;2.20;99.90
15083;DHT22;7640;53.116;6.878;2022-11-20T05:29:34;2.20;99.90
15083;DHT22;7640;53.116;6.878;2022-11-20T05:32:02;2.20;99.90
15083;DHT22;7640;53.116;6.878;2022-11-20T05:34:32;2.20;99.90
15083;DHT22;7640;53.116;6.878;2022-11-20T05:37:02;2.30;99.90
15083;DHT22;7640;53.116;6.878;2022-11-20T05:39:30;2.20;99.90
15083;DHT22;7640;53.116;6.878;2022-11-20T05:41:59;2.20;99.90
15083;DHT22;7640;53.116;6.878;2022-11-20T05:44:42;2.30;99.90
15083;DHT22;7640;53.116;6.878;2022-11-20T05:47:10;1.90;99.90
15083;DHT22;7640;53.116;6.878;2022-11-20T05:49:39;2.20;99.90
15083;DHT22;7640;53.116;6.878;2022-11-20T05:52:08;2.30;99.90
15083;DHT22;7640;53.116;6.878;2022-11-20T05:54:37;2.30;99.90
15083;DHT22;7640;53.116;6.878;2022-11-20T05:57:05;2.60;99.90
15083;DHT22;7640;53.116;6.878;2022-11-20T05:59:33;2.20;99.90
15083;DHT22;7640;53.116;6.878;2022-11-20T06:02:01;2.20;99.90
15083;DHT22;7640;53.116;6.878;2022-11-20T06:04:30;2.30;99.90
15083;DHT22;7640;53.116;6.878;2022-11-20T06:06:58;2.30;99.90
15083;DHT22;7640;53.116;6.878;2022-11-20T06:09:28;2.30;99.90
15083;DHT22;7640;53.116;6.878;2022-11-20T06:11:56;2.30;99.90
15083;DHT22;7640;53.116;6.878;2022-11-20T06:14:25;2.30;99.90
15083;DHT22;7640;53.116;6.878;2022-11-20T06:16:53;2.30;99.90
15083;DHT22;7640;53.116;6.878;2022-11-20T06:19:21;2.30;99.90
15083;DHT22;7640;53.116;6.878;2022-11-20T06:21:50;2.30;99.90
15083;DHT22;7640;53.116;6.878;2022-11-20T06:24:19;2.30;99.90
15083;DHT22;7640;53.116;6.878;2022-11-20T06:26:48;2.30;99.90
15083;DHT22;7640;53.116;6.878;2022-11-20T06:29:17;2.30;99.90
15083;DHT22;7640;53.116;6.878;2022-11-20T06:31:46;2.40;99.90
15083;DHT22;7640;53.116;6.878;2022-11-20T06:34:14;2.40;99.90
15083;DHT22;7640;53.116;6.878;2022-11-20T06:36:42;2.40;99.90
15083;DHT22;7640;53.116;6.878;2022-11-20T06:39:10;2.40;99.90
15083;DHT22;7640;53.116;6.878;2022-11-20T06:41:39;2.40;99.90
15083;DHT22;7640;53.116;6.878;2022-11-20T06:44:08;2.40;99.90
15083;DHT22;7640;53.116;6.878;2022-11-20T06:46:37;2.40;99.90
15083;DHT22;7640;53.116;6.878;2022-11-20T06:49:05;2.40;99.90
15083;DHT22;7640;53.116;6.878;2022-11-20T06:51:33;2.40;99.90
15083;DHT22;7640;53.116;6.878;2022-11-20T06:54:02;2.40;99.90
15083;DHT22;7640;53.116;6.878;2022-11-20T06:56:30;2.30;99.90
15083;DHT22;7640;53.116;6.878;2022-11-20T06:58:59;2.30;99.90
15083;DHT22;7640;53.116;6.878;2022-11-20T07:01:33;2.30;99.90
15083;DHT22;7640;53.116;6.878;2022-11-20T07:04:02;2.30;99.90
15083;DHT22;7640;53.116;6.878;2022-11-20T07:06:30;2.30;99.90
15083;DHT22;7640;53.116;6.878;2022-11-20T07:08:59;2.30;99.90
15083;DHT22;7640;53.116;6.878;2022-11-20T07:11:28;2.30;99.90
15083;DHT22;7640;53.116;6.878;2022-11-20T07:14:00;2.30;99.90
15083;DHT22;7640;53.116;6.878;2022-11-20T07:16:28;2.10;99.90
15083;DHT22;7640;53.116;6.878;2022-11-20T07:18:58;2.40;99.90
15083;DHT22;7640;53.116;6.878;2022-11-20T07:21:26;2.40;99.90
15083;DHT22;7640;53.116;6.878;2022-11-20T07:23:54;2.40;99.90
15083;DHT22;7640;53.116;6.878;2022-11-20T07:26:23;2.00;99.90
15083;DHT22;7640;53.116;6.878;2022-11-20T07:28:52;2.40;99.90
15083;DHT22;7640;53.116;6.878;2022-11-20T07:31:20;2.10;99.90
15083;DHT22;7640;53.116;6.878;2022-11-20T07:33:49;2.40;99.90
15083;DHT22;7640;53.116;6.878;2022-11-20T07:36:18;2.50;99.90
15083;DHT22;7640;53.116;6.878;2022-11-20T07:38:47;2.50;99.90
15083;DHT22;7640;53.116;6.878;2022-11-20T07:41:15;2.50;99.90
15083;DHT22;7640;53.116;6.878;2022-11-20T07:43:43;2.50;99.90
15083;DHT22;7640;53.116;6.878;2022-11-20T07:46:11;2.50;99.90
15083;DHT22;7640;53.116;6.878;2022-11-20T07:48:40;2.60;99.90
15083;DHT22;7640;53.116;6.878;2022-11-20T07:51:08;2.60;99.90
15083;DHT22;7640;53.116;6.878;2022-11-20T07:53:37;2.60;99.90
15083;DHT22;7640;53.116;6.878;2022-11-20T07:56:06;2.60;99.90
15083;DHT22;7640;53.116;6.878;2022-11-20T07:58:35;2.60;99.90
15083;DHT22;7640;53.116;6.878;2022-11-20T08:01:04;2.60;99.90
15083;DHT22;7640;53.116;6.878;2022-11-20T08:03:33;2.70;99.90
15083;DHT22;7640;53.116;6.878;2022-11-20T08:06:02;2.70;99.90
15083;DHT22;7640;53.116;6.878;2022-11-20T08:08:30;2.70;99.90
15083;DHT22;7640;53.116;6.878;2022-11-20T08:11:01;2.70;99.90
15083;DHT22;7640;53.116;6.878;2022-11-20T08:13:47;2.80;99.90
15083;DHT22;7640;53.116;6.878;2022-11-20T08:16:33;2.80;99.90
15083;DHT22;7640;53.116;6.878;2022-11-20T08:19:01;2.80;99.90
15083;DHT22;7640;53.116;6.878;2022-11-20T08:21:30;2.90;99.90
15083;DHT22;7640;53.116;6.878;2022-11-20T08:24:05;2.90;99.90
15083;DHT22;7640;53.116;6.878;2022-11-20T08:26:35;2.90;99.90
15083;DHT22;7640;53.116;6.878;2022-11-20T08:29:04;2.90;99.90
15083;DHT22;7640;53.116;6.878;2022-11-20T08:31:34;2.90;99.90
15083;DHT22;7640;53.116;6.878;2022-11-20T08:34:02;3.00;99.90
15083;DHT22;7640;53.116;6.878;2022-11-20T08:36:35;3.00;99.90
15083;DHT22;7640;53.116;6.878;2022-11-20T08:39:04;3.00;99.90
15083;DHT22;7640;53.116;6.878;2022-11-20T08:41:32;3.10;99.90
15083;DHT22;7640;53.116;6.878;2022-11-20T08:44:05;3.00;99.90
15083;DHT22;7640;53.116;6.878;2022-11-20T08:46:35;3.00;99.90
15083;DHT22;7640;53.116;6.878;2022-11-20T08:49:05;3.00;99.90
15083;DHT22;7640;53.116;6.878;2022-11-20T08:51:34;3.00;99.90
15083;DHT22;7640;53.116;6.878;2022-11-20T08:54:03;3.00;99.90
15083;DHT22;7640;53.116;6.878;2022-11-20T08:56:32;3.00;99.90
15083;DHT22;7640;53.116;6.878;2022-11-20T08:59:02;2.90;99.90
15083;DHT22;7640;53.116;6.878;2022-11-20T09:01:51;2.90;99.90
15083;DHT22;7640;53.116;6.878;2022-11-20T09:04:19;2.90;99.90
15083;DHT22;7640;53.116;6.878;2022-11-20T09:06:47;2.90;99.90
15083;DHT22;7640;53.116;6.878;2022-11-20T09:09:17;3.00;99.90
15083;DHT22;7640;53.116;6.878;2022-11-20T09:11:46;3.00;99.90
15083;DHT22;7640;53.116;6.878;2022-11-20T09:14:18;3.00;99.90
15083;DHT22;7640;53.116;6.878;2022-11-20T09:16:46;3.00;99.90
15083;DHT22;7640;53.116;6.878;2022-11-20T09:19:14;3.00;99.90
15083;DHT22;7640;53.116;6.878;2022-11-20T09:22:03;3.00;99.90
15083;DHT22;7640;53.116;6.878;2022-11-20T09:24:31;3.00;99.90
15083;DHT22;7640;53.116;6.878;2022-11-20T09:27:02;3.10;99.90
15083;DHT22;7640;53.116;6.878;2022-11-20T09:29:33;3.10;99.90
15083;DHT22;7640;53.116;6.878;2022-11-20T09:32:01;3.10;99.90
15083;DHT22;7640;53.116;6.878;2022-11-20T09:34:29;3.20;99.90
15083;DHT22;7640;53.116;6.878;2022-11-20T09:36:58;3.30;99.90
15083;DHT22;7640;53.116;6.878;2022-11-20T09:39:32;3.20;99.90
15083;DHT22;7640;53.116;6.878;2022-11-20T09:42:36;3.20;99.90
15083;DHT22;7640;53.116;6.878;2022-11-20T09:45:18;3.30;99.90
15083;DHT22;7640;53.116;6.878;2022-11-20T09:48:04;3.10;99.90
15083;DHT22;7640;53.116;6.878;2022-11-20T09:50:45;3.20;99.90
15083;DHT22;7640;53.116;6.878;2022-11-20T09:53:22;3.30;99.90
15083;DHT22;7640;53.116;6.878;2022-11-20T09:55:56;3.30;99.90
15083;DHT22;7640;53.116;6.878;2022-11-20T09:58:29;3.30;99.90
15083;DHT22;7640;53.116;6.878;2022-11-20T10:01:10;3.40;99.90
15083;DHT22;7640;53.116;6.878;2022-11-20T10:03:49;3.40;99.90
15083;DHT22;7640;53.116;6.878;2022-11-20T10:06:24;3.50;99.90
15083;DHT22;7640;53.116;6.878;2022-11-20T10:09:04;3.50;99.90
15083;DHT22;7640;53.116;6.878;2022-11-20T10:11:48;3.50;99.90
15083;DHT22;7640;53.116;6.878;2022-11-20T10:14:28;3.60;99.90
15083;DHT22;7640;53.116;6.878;2022-11-20T10:17:03;3.60;99.90
15083;DHT22;7640;53.116;6.878;2022-11-20T10:19:47;3.60;99.90
15083;DHT22;7640;53.116;6.878;2022-11-20T10:22:35;3.60;99.90
15083;DHT22;7640;53.116;6.878;2022-11-20T10:25:14;3.60;99.90
15083;DHT22;7640;53.116;6.878;2022-11-20T10:27:56;3.60;99.90
15083;DHT22;7640;53.116;6.878;2022-11-20T10:30:42;3.60;99.90
15083;DHT22;7640;53.116;6.878;2022-11-20T10:33:17;3.70;99.90
15083;DHT22;7640;53.116;6.878;2022-11-20T10:35:52;3.80;99.90
15083;DHT22;7640;53.116;6.878;2022-11-20T10:38:40;3.80;99.90
15083;DHT22;7640;53.116;6.878;2022-11-20T10:41:17;3.80;99.90
15083;DHT22;7640;53.116;6.878;2022-11-20T10:44:02;3.80;99.90
15083;DHT22;7640;53.116;6.878;2022-11-20T10:46:37;3.90;99.90
15083;DHT22;7640;53.116;6.878;2022-11-20T10:49:13;3.90;99.90
15083;DHT22;7640;53.116;6.878;2022-11-20T10:51:52;4.00;99.90
15083;DHT22;7640;53.116;6.878;2022-11-20T10:54:34;4.00;99.90
15083;DHT22;7640;53.116;6.878;2022-11-20T10:57:10;4.10;99.90
15083;DHT22;7640;53.116;6.878;2022-11-20T11:00:04;4.20;99.90
15083;DHT22;7640;53.116;6.878;2022-11-20T11:02:38;4.30;99.90
15083;DHT22;7640;53.116;6.878;2022-11-20T11:05:23;4.40;99.90
15083;DHT22;7640;53.116;6.878;2022-11-20T11:07:57;4.50;99.90
15083;DHT22;7640;53.116;6.878;2022-11-20T11:10:33;4.60;99.90
15083;DHT22;7640;53.116;6.878;2022-11-20T11:13:04;4.60;99.90
15083;DHT22;7640;53.116;6.878;2022-11-20T11:15:38;4.70;99.90
15083;DHT22;7640;53.116;6.878;2022-11-20T11:18:09;4.70;99.90
15083;DHT22;7640;53.116;6.878;2022-11-20T11:20:38;4.80;99.90
15083;DHT22;7640;53.116;6.878;2022-11-20T11:23:29;4.90;99.90
15083;DHT22;7640;53.116;6.878;2022-11-20T11:26:02;4.90;99.90
15083;DHT22;7640;53.116;6.878;2022-11-20T11:28:31;4.90;99.90
15083;DHT22;7640;53.116;6.878;2022-11-20T11:31:00;5.00;99.90
15083;DHT22;7640;53.116;6.878;2022-11-20T11:33:30;5.00;99.90
15083;DHT22;7640;53.116;6.878;2022-11-20T11:36:03;5.10;99.90
15083;DHT22;7640;53.116;6.878;2022-11-20T11:38:36;5.20;99.90
15083;DHT22;7640;53.116;6.878;2022-11-20T11:41:20;5.30;99.90
15083;DHT22;7640;53.116;6.878;2022-11-20T11:43:53;5.30;99.90
15083;DHT22;7640;53.116;6.878;2022-11-20T11:46:49;5.30;99.90
15083;DHT22;7640;53.116;6.878;2022-11-20T11:49:21;5.30;99.90
15083;DHT22;7640;53.116;6.878;2022-11-20T11:52:00;5.30;99.90
15083;DHT22;7640;53.116;6.878;2022-11-20T11:54:38;5.30;99.90
15083;DHT22;7640;53.116;6.878;2022-11-20T11:57:14;5.30;99.90
15083;DHT22;7640;53.116;6.878;2022-11-20T11:59:54;5.30;99.90
15083;DHT22;7640;53.116;6.878;2022-11-20T12:02:36;5.30;99.90
15083;DHT22;7640;53.116;6.878;2022-11-20T12:05:17;5.30;99.90
15083;DHT22;7640;53.116;6.878;2022-11-20T12:07:52;5.40;99.90
15083;DHT22;7640;53.116;6.878;2022-11-20T12:10:37;5.40;99.90
15083;DHT22;7640;53.116;6.878;2022-11-20T12:13:19;5.40;99.90
15083;DHT22;7640;53.116;6.878;2022-11-20T12:15:53;5.50;99.90
15083;DHT22;7640;53.116;6.878;2022-11-20T12:18:22;5.50;99.90
15083;DHT22;7640;53.116;6.878;2022-11-20T12:21:04;5.40;99.90
15083;DHT22;7640;53.116;6.878;2022-11-20T12:23:47;5.30;99.90
15083;DHT22;7640;53.116;6.878;2022-11-20T12:26:31;5.30;99.90
15083;DHT22;7640;53.116;6.878;2022-11-20T12:29:29;5.30;99.90
15083;DHT22;7640;53.116;6.878;2022-11-20T12:35:36;5.30;99.90
15083;DHT22;7640;53.116;6.878;2022-11-20T12:38:33;5.10;99.90
15083;DHT22;7640;53.116;6.878;2022-11-20T12:41:14;5.50;99.90
15083;DHT22;7640;53.116;6.878;2022-11-20T12:44:18;5.60;99.90
15083;DHT22;7640;53.116;6.878;2022-11-20T12:47:16;5.70;99.90
15083;DHT22;7640;53.116;6.878;2022-11-20T12:49:52;5.80;99.90
15083;DHT22;7640;53.116;6.878;2022-11-20T12:52:37;5.90;99.90
15083;DHT22;7640;53.116;6.878;2022-11-20T12:55:21;6.10;99.90
15083;DHT22;7640;53.116;6.878;2022-11-20T12:57:57;6.20;99.90
15083;DHT22;7640;53.116;6.878;2022-11-20T13:00:26;6.40;99.90
15083;DHT22;7640;53.116;6.878;2022-11-20T13:03:16;6.40;99.90
15083;DHT22;7640;53.116;6.878;2022-11-20T13:06:05;6.30;99.90
15083;DHT22;7640;53.116;6.878;2022-11-20T13:08:45;6.20;99.90
15083;DHT22;7640;53.116;6.878;2022-11-20T13:11:23;6.10;99.90
15083;DHT22;7640;53.116;6.878;2022-11-20T13:14:07;6.00;99.90
15083;DHT22;7640;53.116;6.878;2022-11-20T13:16:48;5.90;99.90
15083;DHT22;7640;53.116;6.878;2022-11-20T13:19:18;5.90;99.90
15083;DHT22;7640;53.116;6.878;2022-11-20T13:21:48;5.90;99.90
15083;DHT22;7640;53.116;6.878;2022-11-20T13:24:24;5.90;99.90
15083;DHT22;7640;53.116;6.878;2022-11-20T13:27:05;5.90;99.90
15083;DHT22;7640;53.116;6.878;2022-11-20T13:29:47;5.90;99.90
15083;DHT22;7640;53.116;6.878;2022-11-20T13:32:28;5.80;99.90
15083;DHT22;7640;53.116;6.878;2022-11-20T13:35:00;6.20;99.90
15083;DHT22;7640;53.116;6.878;2022-11-20T13:37:32;5.80;99.90
15083;DHT22;7640;53.116;6.878;2022-11-20T13:40:21;5.80;99.90
15083;DHT22;7640;53.116;6.878;2022-11-20T13:43:15;5.80;99.90
15083;DHT22;7640;53.116;6.878;2022-11-20T13:45:58;5.80;99.90
15083;DHT22;7640;53.116;6.878;2022-11-20T13:48:31;5.70;99.90
15083;DHT22;7640;53.116;6.878;2022-11-20T13:51:11;5.60;99.90
15083;DHT22;7640;53.116;6.878;2022-11-20T13:54:14;5.60;99.90
15083;DHT22;7640;53.116;6.878;2022-11-20T13:56:59;5.60;99.90
15083;DHT22;7640;53.116;6.878;2022-11-20T13:59:43;5.50;99.90
15083;DHT22;7640;53.116;6.878;2022-11-20T14:02:20;5.50;99.90
15083;DHT22;7640;53.116;6.878;2022-11-20T14:04:52;5.50;99.90
15083;DHT22;7640;53.116;6.878;2022-11-20T14:07:25;5.40;99.90
15083;DHT22;7640;53.116;6.878;2022-11-20T14:09:56;5.40;99.90
15083;DHT22;7640;53.116;6.878;2022-11-20T14:12:29;5.30;99.90
15083;DHT22;7640;53.116;6.878;2022-11-20T14:15:01;5.30;99.90
15083;DHT22;7640;53.116;6.878;2022-11-20T14:17:31;5.20;99.90
15083;DHT22;7640;53.116;6.878;2022-11-20T14:20:04;5.10;99.90
15083;DHT22;7640;53.116;6.878;2022-11-20T14:22:35;5.10;99.90
15083;DHT22;7640;53.116;6.878;2022-11-20T14:25:06;5.10;99.90
15083;DHT22;7640;53.116;6.878;2022-11-20T14:27:51;5.00;99.90
15083;DHT22;7640;53.116;6.878;2022-11-20T14:30:23;5.00;99.90
15083;DHT22;7640;53.116;6.878;2022-11-20T14:32:54;5.00;99.90
15083;DHT22;7640;53.116;6.878;2022-11-20T14:35:26;4.90;99.90
15083;DHT22;7640;53.116;6.878;2022-11-20T14:37:56;4.90;99.90
15083;DHT22;7640;53.116;6.878;2022-11-20T14:40:27;4.80;99.90
15083;DHT22;7640;53.116;6.878;2022-11-20T14:42:58;4.80;99.90
15083;DHT22;7640;53.116;6.878;2022-11-20T14:45:28;4.80;99.90
15083;DHT22;7640;53.116;6.878;2022-11-20T14:47:58;4.80;99.90
15083;DHT22;7640;53.116;6.878;2022-11-20T14:50:28;4.70;99.90
15083;DHT22;7640;53.116;6.878;2022-11-20T14:52:59;4.70;99.90
15083;DHT22;7640;53.116;6.878;2022-11-20T14:55:31;4.60;99.90
15083;DHT22;7640;53.116;6.878;2022-11-20T14:58:02;4.60;99.90
15083;DHT22;7640;53.116;6.878;2022-11-20T15:00:34;4.50;99.90
15083;DHT22;7640;53.116;6.878;2022-11-20T15:03:15;4.50;99.90
15083;DHT22;7640;53.116;6.878;2022-11-20T15:05:46;4.50;99.90
15083;DHT22;7640;53.116;6.878;2022-11-20T15:08:16;4.40;99.90
15083;DHT22;7640;53.116;6.878;2022-11-20T15:10:47;4.30;99.90
15083;DHT22;7640;53.116;6.878;2022-11-20T15:13:24;4.30;99.90
15083;DHT22;7640;53.116;6.878;2022-11-20T15:15:57;4.20;99.90
15083;DHT22;7640;53.116;6.878;2022-11-20T15:18:28;4.20;99.90
15083;DHT22;7640;53.116;6.878;2022-11-20T15:21:02;4.10;99.90
15083;DHT22;7640;53.116;6.878;2022-11-20T15:23:32;4.10;99.90
15083;DHT22;7640;53.116;6.878;2022-11-20T15:26:00;4.00;99.90
15083;DHT22;7640;53.116;6.878;2022-11-20T15:28:31;4.00;99.90
15083;DHT22;7640;53.116;6.878;2022-11-20T15:31:01;3.90;99.90
15083;DHT22;7640;53.116;6.878;2022-11-20T15:33:31;3.80;99.90
15083;DHT22;7640;53.116;6.878;2022-11-20T15:36:00;3.80;99.90
15083;DHT22;7640;53.116;6.878;2022-11-20T15:38:33;3.70;99.90
15083;DHT22;7640;53.116;6.878;2022-11-20T15:41:02;3.60;99.90
15083;DHT22;7640;53.116;6.878;2022-11-20T15:43:30;3.60;99.90
15083;DHT22;7640;53.116;6.878;2022-11-20T15:46:02;3.50;99.90
15083;DHT22;7640;53.116;6.878;2022-11-20T15:48:35;3.50;99.90
15083;DHT22;7640;53.116;6.878;2022-11-20T15:51:21;3.50;99.90
15083;DHT22;7640;53.116;6.878;2022-11-20T15:53:52;3.50;99.90
15083;DHT22;7640;53.116;6.878;2022-11-20T15:56:22;3.50;99.90
15083;DHT22;7640;53.116;6.878;2022-11-20T15:58:50;3.40;99.90
15083;DHT22;7640;53.116;6.878;2022-11-20T16:01:21;3.40;99.90
15083;DHT22;7640;53.116;6.878;2022-11-20T16:03:50;3.40;99.90
15083;DHT22;7640;53.116;6.878;2022-11-20T16:06:19;3.40;99.90
15083;DHT22;7640;53.116;6.878;2022-11-20T16:08:48;3.40;99.90
15083;DHT22;7640;53.116;6.878;2022-11-20T16:11:17;3.40;99.90
15083;DHT22;7640;53.116;6.878;2022-11-20T16:13:46;3.40;99.90
15083;DHT22;7640;53.116;6.878;2022-11-20T16:16:35;3.40;99.90
15083;DHT22;7640;53.116;6.878;2022-11-20T16:19:04;3.40;99.90
15083;DHT22;7640;53.116;6.878;2022-11-20T16:21:32;3.40;99.90
15083;DHT22;7640;53.116;6.878;2022-11-20T16:24:03;3.40;99.90
15083;DHT22;7640;53.116;6.878;2022-11-20T16:26:33;3.40;99.90
15083;DHT22;7640;53.116;6.878;2022-11-20T16:29:03;3.40;99.90
15083;DHT22;7640;53.116;6.878;2022-11-20T16:31:34;3.40;99.90
15083;DHT22;7640;53.116;6.878;2022-11-20T16:34:05;3.40;99.90
15083;DHT22;7640;53.116;6.878;2022-11-20T16:36:40;3.40;99.90
15083;DHT22;7640;53.116;6.878;2022-11-20T16:39:08;3.40;99.90
15083;DHT22;7640;53.116;6.878;2022-11-20T16:41:37;3.40;99.90